sensor_id;sensor_type;location;lat;lon;timestamp;P1;durP1;ratioP1;P2;durP2;ratioP2
20734;SDS011;10528;52.124;5.196;2022-08-01T00:00:13;5.22;;;3.00;;
20734;SDS011;10528;52.124;5.196;2022-08-01T00:02:40;5.18;;;3.20;;
20734;SDS011;10528;52.124;5.196;2022-08-01T00:05:08;4.18;;;2.63;;
20734;SDS011;10528;52.124;5.196;2022-08-01T00:07:35;4.75;;;3.35;;
20734;SDS011;10528;52.124;5.196;2022-08-01T00:10:03;4.97;;;3.17;;
20734;SDS011;10528;52.124;5.196;2022-08-01T00:12:33;6.53;;;3.13;;
20734;SDS011;10528;52.124;5.196;2022-08-01T00:15:00;4.45;;;2.83;;
20734;SDS011;10528;52.124;5.196;2022-08-01T00:17:28;5.03;;;3.33;;
20734;SDS011;10528;52.124;5.196;2022-08-01T00:19:55;6.22;;;3.47;;
20734;SDS011;10528;52.124;5.196;2022-08-01T00:22:22;6.57;;;3.70;;
20734;SDS011;10528;52.124;5.196;2022-08-01T00:24:49;6.40;;;3.60;;
20734;SDS011;10528;52.124;5.196;2022-08-01T00:27:16;6.53;;;3.72;;
20734;SDS011;10528;52.124;5.196;2022-08-01T00:29:43;5.35;;;3.15;;
20734;SDS011;10528;52.124;5.196;2022-08-01T00:32:30;5.80;;;3.40;;
20734;SDS011;10528;52.124;5.196;2022-08-01T00:34:58;5.95;;;3.80;;
20734;SDS011;10528;52.124;5.196;2022-08-01T00:37:25;6.53;;;4.10;;
20734;SDS011;10528;52.124;5.196;2022-08-01T00:39:52;5.93;;;4.05;;
20734;SDS011;10528;52.124;5.196;2022-08-01T00:42:18;7.55;;;4.25;;
20734;SDS011;10528;52.124;5.196;2022-08-01T00:44:46;5.95;;;3.78;;
20734;SDS011;10528;52.124;5.196;2022-08-01T00:47:12;5.65;;;3.85;;
20734;SDS011;10528;52.124;5.196;2022-08-01T00:49:39;8.32;;;4.03;;
20734;SDS011;10528;52.124;5.196;2022-08-01T00:52:06;6.53;;;4.43;;
20734;SDS011;10528;52.124;5.196;2022-08-01T00:54:35;6.63;;;4.00;;
20734;SDS011;10528;52.124;5.196;2022-08-01T00:57:02;6.00;;;4.20;;
20734;SDS011;10528;52.124;5.196;2022-08-01T00:59:35;7.63;;;4.63;;
20734;SDS011;10528;52.124;5.196;2022-08-01T01:02:05;8.38;;;4.75;;
20734;SDS011;10528;52.124;5.196;2022-08-01T01:04:41;7.97;;;5.03;;
20734;SDS011;10528;52.124;5.196;2022-08-01T01:10:00;8.23;;;5.20;;
20734;SDS011;10528;52.124;5.196;2022-08-01T01:12:42;9.32;;;5.65;;
20734;SDS011;10528;52.124;5.196;2022-08-01T01:15:22;8.68;;;5.32;;
20734;SDS011;10528;52.124;5.196;2022-08-01T01:18:03;9.43;;;6.15;;
20734;SDS011;10528;52.124;5.196;2022-08-01T01:20:39;9.77;;;5.45;;
20734;SDS011;10528;52.124;5.196;2022-08-01T01:23:33;8.43;;;5.47;;
20734;SDS011;10528;52.124;5.196;2022-08-01T01:29:31;8.23;;;5.85;;
20734;SDS011;10528;52.124;5.196;2022-08-01T01:32:33;8.77;;;5.68;;
20734;SDS011;10528;52.124;5.196;2022-08-01T01:35:06;8.93;;;5.60;;
20734;SDS011;10528;52.124;5.196;2022-08-01T01:37:39;8.27;;;4.88;;
20734;SDS011;10528;52.124;5.196;2022-08-01T01:40:09;11.98;;;5.30;;
20734;SDS011;10528;52.124;5.196;2022-08-01T01:42:38;10.48;;;5.70;;
20734;SDS011;10528;52.124;5.196;2022-08-01T01:45:08;7.10;;;4.90;;
20734;SDS011;10528;52.124;5.196;2022-08-01T01:47:36;8.30;;;5.45;;
20734;SDS011;10528;52.124;5.196;2022-08-01T01:50:05;9.90;;;5.57;;
20734;SDS011;10528;52.124;5.196;2022-08-01T01:52:37;8.13;;;5.05;;
20734;SDS011;10528;52.124;5.196;2022-08-01T01:55:08;8.50;;;5.93;;
20734;SDS011;10528;52.124;5.196;2022-08-01T01:57:37;11.43;;;5.95;;
20734;SDS011;10528;52.124;5.196;2022-08-01T02:00:09;10.00;;;6.18;;
20734;SDS011;10528;52.124;5.196;2022-08-01T02:02:39;8.18;;;5.55;;
20734;SDS011;10528;52.124;5.196;2022-08-01T02:05:10;8.30;;;4.85;;
20734;SDS011;10528;52.124;5.196;2022-08-01T02:07:38;7.35;;;5.13;;
20734;SDS011;10528;52.124;5.196;2022-08-01T02:10:07;8.48;;;5.28;;
20734;SDS011;10528;52.124;5.196;2022-08-01T02:12:36;7.30;;;4.75;;
20734;SDS011;10528;52.124;5.196;2022-08-01T02:15:07;8.48;;;5.05;;
20734;SDS011;10528;52.124;5.196;2022-08-01T02:17:37;8.80;;;5.10;;
20734;SDS011;10528;52.124;5.196;2022-08-01T02:20:10;8.68;;;5.53;;
20734;SDS011;10528;52.124;5.196;2022-08-01T02:22:42;7.78;;;5.00;;
20734;SDS011;10528;52.124;5.196;2022-08-01T02:31:08;6.32;;;4.47;;
20734;SDS011;10528;52.124;5.196;2022-08-01T02:33:46;7.43;;;4.75;;
20734;SDS011;10528;52.124;5.196;2022-08-01T02:36:23;8.93;;;5.15;;
20734;SDS011;10528;52.124;5.196;2022-08-01T02:38:59;9.82;;;5.40;;
20734;SDS011;10528;52.124;5.196;2022-08-01T02:41:38;7.03;;;4.50;;
20734;SDS011;10528;52.124;5.196;2022-08-01T02:44:09;8.60;;;5.38;;
20734;SDS011;10528;52.124;5.196;2022-08-01T02:46:56;9.10;;;5.38;;
20734;SDS011;10528;52.124;5.196;2022-08-01T02:49:31;8.05;;;5.03;;
20734;SDS011;10528;52.124;5.196;2022-08-01T02:52:03;8.77;;;5.40;;
20734;SDS011;10528;52.124;5.196;2022-08-01T02:54:37;7.85;;;5.10;;
20734;SDS011;10528;52.124;5.196;2022-08-01T02:57:07;8.65;;;4.82;;
20734;SDS011;10528;52.124;5.196;2022-08-01T02:59:39;6.55;;;4.88;;
20734;SDS011;10528;52.124;5.196;2022-08-01T03:02:10;9.55;;;4.80;;
20734;SDS011;10528;52.124;5.196;2022-08-01T03:04:38;7.63;;;5.03;;
20734;SDS011;10528;52.124;5.196;2022-08-01T03:07:08;7.32;;;4.53;;
20734;SDS011;10528;52.124;5.196;2022-08-01T03:09:38;7.00;;;4.40;;
20734;SDS011;10528;52.124;5.196;2022-08-01T03:12:12;6.45;;;4.32;;
20734;SDS011;10528;52.124;5.196;2022-08-01T03:14:43;5.88;;;4.40;;
20734;SDS011;10528;52.124;5.196;2022-08-01T03:17:15;8.02;;;4.18;;
20734;SDS011;10528;52.124;5.196;2022-08-01T03:19:45;6.68;;;4.35;;
20734;SDS011;10528;52.124;5.196;2022-08-01T03:22:14;6.05;;;4.53;;
20734;SDS011;10528;52.124;5.196;2022-08-01T03:24:44;6.22;;;4.35;;
20734;SDS011;10528;52.124;5.196;2022-08-01T03:27:17;5.93;;;4.00;;
20734;SDS011;10528;52.124;5.196;2022-08-01T03:29:47;6.18;;;4.18;;
20734;SDS011;10528;52.124;5.196;2022-08-01T03:32:16;6.63;;;4.90;;
20734;SDS011;10528;52.124;5.196;2022-08-01T03:34:45;5.13;;;4.25;;
20734;SDS011;10528;52.124;5.196;2022-08-01T03:40:31;4.97;;;3.88;;
20734;SDS011;10528;52.124;5.196;2022-08-01T03:43:26;6.85;;;4.22;;
20734;SDS011;10528;52.124;5.196;2022-08-01T03:46:05;6.90;;;4.97;;
20734;SDS011;10528;52.124;5.196;2022-08-01T03:48:43;8.10;;;4.72;;
20734;SDS011;10528;52.124;5.196;2022-08-01T03:51:15;7.72;;;5.25;;
20734;SDS011;10528;52.124;5.196;2022-08-01T03:53:45;6.80;;;5.28;;
20734;SDS011;10528;52.124;5.196;2022-08-01T03:56:16;8.40;;;6.05;;
20734;SDS011;10528;52.124;5.196;2022-08-01T03:58:46;8.02;;;5.78;;
20734;SDS011;10528;52.124;5.196;2022-08-01T04:01:15;8.85;;;6.43;;
20734;SDS011;10528;52.124;5.196;2022-08-01T04:03:45;10.50;;;7.00;;
20734;SDS011;10528;52.124;5.196;2022-08-01T04:06:12;9.20;;;6.43;;
20734;SDS011;10528;52.124;5.196;2022-08-01T04:08:40;11.02;;;6.78;;
20734;SDS011;10528;52.124;5.196;2022-08-01T04:11:08;8.45;;;6.22;;
20734;SDS011;10528;52.124;5.196;2022-08-01T04:13:36;7.20;;;6.28;;
20734;SDS011;10528;52.124;5.196;2022-08-01T04:16:03;8.57;;;6.60;;
20734;SDS011;10528;52.124;5.196;2022-08-01T04:18:31;11.00;;;6.38;;
20734;SDS011;10528;52.124;5.196;2022-08-01T04:20:58;9.50;;;6.80;;
20734;SDS011;10528;52.124;5.196;2022-08-01T04:23:25;10.50;;;6.40;;
20734;SDS011;10528;52.124;5.196;2022-08-01T04:25:54;10.95;;;7.35;;
20734;SDS011;10528;52.124;5.196;2022-08-01T04:28:25;8.75;;;6.85;;
20734;SDS011;10528;52.124;5.196;2022-08-01T04:30:54;8.60;;;6.75;;
20734;SDS011;10528;52.124;5.196;2022-08-01T04:33:27;9.88;;;6.85;;
20734;SDS011;10528;52.124;5.196;2022-08-01T04:35:56;9.82;;;6.97;;
20734;SDS011;10528;52.124;5.196;2022-08-01T04:38:30;9.63;;;6.57;;
20734;SDS011;10528;52.124;5.196;2022-08-01T04:41:02;10.38;;;7.55;;
20734;SDS011;10528;52.124;5.196;2022-08-01T04:43:35;10.30;;;6.78;;
20734;SDS011;10528;52.124;5.196;2022-08-01T04:46:03;8.65;;;6.43;;
20734;SDS011;10528;52.124;5.196;2022-08-01T04:48:36;8.02;;;6.68;;
20734;SDS011;10528;52.124;5.196;2022-08-01T04:51:11;7.72;;;5.68;;
20734;SDS011;10528;52.124;5.196;2022-08-01T04:53:43;9.80;;;6.53;;
20734;SDS011;10528;52.124;5.196;2022-08-01T04:56:12;7.75;;;5.90;;
20734;SDS011;10528;52.124;5.196;2022-08-01T04:58:40;8.85;;;5.43;;
20734;SDS011;10528;52.124;5.196;2022-08-01T05:01:08;6.40;;;4.65;;
20734;SDS011;10528;52.124;5.196;2022-08-01T05:03:36;7.28;;;4.82;;
20734;SDS011;10528;52.124;5.196;2022-08-01T05:06:04;6.25;;;4.05;;
20734;SDS011;10528;52.124;5.196;2022-08-01T05:08:32;6.00;;;4.05;;
20734;SDS011;10528;52.124;5.196;2022-08-01T05:10:59;5.38;;;4.30;;
20734;SDS011;10528;52.124;5.196;2022-08-01T05:13:27;5.68;;;4.03;;
20734;SDS011;10528;52.124;5.196;2022-08-01T05:15:54;5.53;;;3.80;;
20734;SDS011;10528;52.124;5.196;2022-08-01T05:18:21;5.07;;;3.25;;
20734;SDS011;10528;52.124;5.196;2022-08-01T05:20:53;4.63;;;2.88;;
20734;SDS011;10528;52.124;5.196;2022-08-01T05:23:21;4.93;;;2.85;;
20734;SDS011;10528;52.124;5.196;2022-08-01T05:26:08;4.32;;;2.58;;
20734;SDS011;10528;52.124;5.196;2022-08-01T05:28:39;2.40;;;1.90;;
20734;SDS011;10528;52.124;5.196;2022-08-01T05:31:06;3.03;;;1.95;;
20734;SDS011;10528;52.124;5.196;2022-08-01T05:33:33;2.47;;;1.85;;
20734;SDS011;10528;52.124;5.196;2022-08-01T05:36:00;3.95;;;1.63;;
20734;SDS011;10528;52.124;5.196;2022-08-01T05:38:27;3.58;;;1.48;;
20734;SDS011;10528;52.124;5.196;2022-08-01T05:40:54;2.30;;;1.20;;
20734;SDS011;10528;52.124;5.196;2022-08-01T05:43:21;1.52;;;1.15;;
20734;SDS011;10528;52.124;5.196;2022-08-01T05:45:54;2.20;;;1.35;;
20734;SDS011;10528;52.124;5.196;2022-08-01T05:48:20;2.15;;;1.40;;
20734;SDS011;10528;52.124;5.196;2022-08-01T05:50:47;1.92;;;1.33;;
20734;SDS011;10528;52.124;5.196;2022-08-01T05:53:15;2.95;;;1.55;;
20734;SDS011;10528;52.124;5.196;2022-08-01T05:55:42;1.88;;;1.40;;
20734;SDS011;10528;52.124;5.196;2022-08-01T05:58:09;2.53;;;1.20;;
20734;SDS011;10528;52.124;5.196;2022-08-01T06:00:37;2.47;;;1.13;;
20734;SDS011;10528;52.124;5.196;2022-08-01T06:03:05;1.23;;;1.10;;
20734;SDS011;10528;52.124;5.196;2022-08-01T06:05:32;2.88;;;1.33;;
20734;SDS011;10528;52.124;5.196;2022-08-01T06:07:59;2.75;;;1.50;;
20734;SDS011;10528;52.124;5.196;2022-08-01T06:10:25;2.08;;;1.15;;
20734;SDS011;10528;52.124;5.196;2022-08-01T06:12:52;1.10;;;1.02;;
20734;SDS011;10528;52.124;5.196;2022-08-01T06:15:19;1.45;;;1.20;;
20734;SDS011;10528;52.124;5.196;2022-08-01T06:17:46;1.45;;;1.25;;
20734;SDS011;10528;52.124;5.196;2022-08-01T06:20:13;2.10;;;1.20;;
20734;SDS011;10528;52.124;5.196;2022-08-01T06:22:40;1.50;;;1.13;;
20734;SDS011;10528;52.124;5.196;2022-08-01T06:25:07;1.60;;;1.05;;
20734;SDS011;10528;52.124;5.196;2022-08-01T06:27:35;1.58;;;1.20;;
20734;SDS011;10528;52.124;5.196;2022-08-01T06:30:02;2.72;;;1.45;;
20734;SDS011;10528;52.124;5.196;2022-08-01T06:32:31;2.97;;;1.45;;
20734;SDS011;10528;52.124;5.196;2022-08-01T06:34:58;1.60;;;1.35;;
20734;SDS011;10528;52.124;5.196;2022-08-01T06:37:28;2.50;;;1.40;;
20734;SDS011;10528;52.124;5.196;2022-08-01T06:40:00;2.00;;;1.50;;
20734;SDS011;10528;52.124;5.196;2022-08-01T06:42:33;2.70;;;1.48;;
20734;SDS011;10528;52.124;5.196;2022-08-01T06:45:04;1.95;;;1.40;;
20734;SDS011;10528;52.124;5.196;2022-08-01T06:47:36;4.68;;;1.70;;
20734;SDS011;10528;52.124;5.196;2022-08-01T06:50:05;5.97;;;1.80;;
20734;SDS011;10528;52.124;5.196;2022-08-01T06:52:37;3.33;;;1.80;;
20734;SDS011;10528;52.124;5.196;2022-08-01T06:55:04;3.08;;;1.67;;
20734;SDS011;10528;52.124;5.196;2022-08-01T06:57:31;4.78;;;2.25;;
20734;SDS011;10528;52.124;5.196;2022-08-01T07:00:01;4.20;;;2.00;;
20734;SDS011;10528;52.124;5.196;2022-08-01T07:02:35;3.85;;;2.10;;
20734;SDS011;10528;52.124;5.196;2022-08-01T07:05:03;3.55;;;2.03;;
20734;SDS011;10528;52.124;5.196;2022-08-01T07:07:30;3.47;;;1.55;;
20734;SDS011;10528;52.124;5.196;2022-08-01T07:09:57;4.70;;;1.80;;
20734;SDS011;10528;52.124;5.196;2022-08-01T07:12:24;10.13;;;2.42;;
20734;SDS011;10528;52.124;5.196;2022-08-01T07:14:51;7.40;;;2.67;;
20734;SDS011;10528;52.124;5.196;2022-08-01T07:17:18;6.05;;;2.42;;
20734;SDS011;10528;52.124;5.196;2022-08-01T07:19:46;5.28;;;1.88;;
20734;SDS011;10528;52.124;5.196;2022-08-01T07:22:14;8.82;;;2.38;;
20734;SDS011;10528;52.124;5.196;2022-08-01T07:24:48;6.90;;;1.90;;
20734;SDS011;10528;52.124;5.196;2022-08-01T07:27:19;10.20;;;2.65;;
20734;SDS011;10528;52.124;5.196;2022-08-01T07:29:51;11.02;;;2.17;;
20734;SDS011;10528;52.124;5.196;2022-08-01T07:32:18;8.43;;;2.25;;
20734;SDS011;10528;52.124;5.196;2022-08-01T07:34:45;9.05;;;2.30;;
20734;SDS011;10528;52.124;5.196;2022-08-01T07:37:12;8.75;;;2.45;;
20734;SDS011;10528;52.124;5.196;2022-08-01T07:39:39;9.52;;;3.65;;
20734;SDS011;10528;52.124;5.196;2022-08-01T07:42:06;7.63;;;2.22;;
20734;SDS011;10528;52.124;5.196;2022-08-01T07:44:34;7.28;;;1.90;;
20734;SDS011;10528;52.124;5.196;2022-08-01T07:47:02;7.97;;;2.20;;
20734;SDS011;10528;52.124;5.196;2022-08-01T07:49:30;8.48;;;2.33;;
20734;SDS011;10528;52.124;5.196;2022-08-01T07:52:04;12.77;;;3.40;;
20734;SDS011;10528;52.124;5.196;2022-08-01T07:54:32;7.85;;;2.30;;
20734;SDS011;10528;52.124;5.196;2022-08-01T07:57:00;7.28;;;2.30;;
20734;SDS011;10528;52.124;5.196;2022-08-01T07:59:28;7.10;;;2.00;;
20734;SDS011;10528;52.124;5.196;2022-08-01T08:01:56;8.80;;;2.30;;
20734;SDS011;10528;52.124;5.196;2022-08-01T08:04:23;8.70;;;2.33;;
20734;SDS011;10528;52.124;5.196;2022-08-01T08:06:50;6.72;;;2.20;;
20734;SDS011;10528;52.124;5.196;2022-08-01T08:09:19;10.35;;;2.40;;
20734;SDS011;10528;52.124;5.196;2022-08-01T08:11:46;7.82;;;2.10;;
20734;SDS011;10528;52.124;5.196;2022-08-01T08:14:14;6.90;;;1.95;;
20734;SDS011;10528;52.124;5.196;2022-08-01T08:16:42;5.70;;;1.90;;
20734;SDS011;10528;52.124;5.196;2022-08-01T08:19:10;7.75;;;2.08;;
20734;SDS011;10528;52.124;5.196;2022-08-01T08:21:38;5.97;;;2.00;;
20734;SDS011;10528;52.124;5.196;2022-08-01T08:24:06;8.50;;;2.15;;
20734;SDS011;10528;52.124;5.196;2022-08-01T08:27:01;10.10;;;2.20;;
20734;SDS011;10528;52.124;5.196;2022-08-01T08:29:30;6.18;;;1.80;;
20734;SDS011;10528;52.124;5.196;2022-08-01T08:31:58;9.38;;;1.90;;
20734;SDS011;10528;52.124;5.196;2022-08-01T08:34:27;9.32;;;2.17;;
20734;SDS011;10528;52.124;5.196;2022-08-01T08:36:55;6.50;;;1.95;;
20734;SDS011;10528;52.124;5.196;2022-08-01T08:39:24;9.38;;;1.98;;
20734;SDS011;10528;52.124;5.196;2022-08-01T08:41:52;9.15;;;2.60;;
20734;SDS011;10528;52.124;5.196;2022-08-01T08:44:20;8.57;;;1.92;;
20734;SDS011;10528;52.124;5.196;2022-08-01T08:46:48;5.65;;;1.88;;
20734;SDS011;10528;52.124;5.196;2022-08-01T08:49:19;7.38;;;2.03;;
20734;SDS011;10528;52.124;5.196;2022-08-01T08:51:50;7.13;;;1.92;;
20734;SDS011;10528;52.124;5.196;2022-08-01T08:54:20;11.82;;;1.98;;
20734;SDS011;10528;52.124;5.196;2022-08-01T08:56:56;10.82;;;2.00;;
20734;SDS011;10528;52.124;5.196;2022-08-01T08:59:26;14.82;;;2.25;;
20734;SDS011;10528;52.124;5.196;2022-08-01T09:01:54;9.23;;;1.70;;
20734;SDS011;10528;52.124;5.196;2022-08-01T09:04:24;6.68;;;1.67;;
20734;SDS011;10528;52.124;5.196;2022-08-01T09:06:53;11.63;;;2.17;;
20734;SDS011;10528;52.124;5.196;2022-08-01T09:09:21;7.65;;;1.90;;
20734;SDS011;10528;52.124;5.196;2022-08-01T09:11:48;11.75;;;1.92;;
20734;SDS011;10528;52.124;5.196;2022-08-01T09:14:23;12.57;;;2.72;;
20734;SDS011;10528;52.124;5.196;2022-08-01T09:19:27;9.10;;;1.75;;
20734;SDS011;10528;52.124;5.196;2022-08-01T09:22:15;7.57;;;1.60;;
20734;SDS011;10528;52.124;5.196;2022-08-01T09:25:00;7.45;;;1.92;;
20734;SDS011;10528;52.124;5.196;2022-08-01T09:27:37;6.93;;;1.48;;
20734;SDS011;10528;52.124;5.196;2022-08-01T09:30:12;6.28;;;1.30;;
20734;SDS011;10528;52.124;5.196;2022-08-01T09:32:55;5.55;;;1.30;;
20734;SDS011;10528;52.124;5.196;2022-08-01T09:35:53;8.25;;;1.60;;
20734;SDS011;10528;52.124;5.196;2022-08-01T09:38:24;9.05;;;1.27;;
20734;SDS011;10528;52.124;5.196;2022-08-01T09:40:59;11.32;;;1.73;;
20734;SDS011;10528;52.124;5.196;2022-08-01T09:43:27;9.02;;;2.17;;
20734;SDS011;10528;52.124;5.196;2022-08-01T09:45:58;9.82;;;1.77;;
20734;SDS011;10528;52.124;5.196;2022-08-01T09:48:30;8.27;;;1.55;;
20734;SDS011;10528;52.124;5.196;2022-08-01T09:50:59;11.02;;;2.38;;
20734;SDS011;10528;52.124;5.196;2022-08-01T09:54:08;9.40;;;1.63;;
20734;SDS011;10528;52.124;5.196;2022-08-01T09:56:36;10.27;;;1.60;;
20734;SDS011;10528;52.124;5.196;2022-08-01T09:59:08;6.50;;;1.50;;
20734;SDS011;10528;52.124;5.196;2022-08-01T10:01:43;6.07;;;1.38;;
20734;SDS011;10528;52.124;5.196;2022-08-01T10:04:14;4.10;;;1.30;;
20734;SDS011;10528;52.124;5.196;2022-08-01T10:06:46;4.72;;;1.10;;
20734;SDS011;10528;52.124;5.196;2022-08-01T10:09:27;7.25;;;1.10;;
20734;SDS011;10528;52.124;5.196;2022-08-01T10:12:06;5.78;;;1.30;;
20734;SDS011;10528;52.124;5.196;2022-08-01T10:14:41;5.38;;;1.30;;
20734;SDS011;10528;52.124;5.196;2022-08-01T10:17:13;5.82;;;1.67;;
20734;SDS011;10528;52.124;5.196;2022-08-01T10:19:45;6.47;;;1.30;;
20734;SDS011;10528;52.124;5.196;2022-08-01T10:22:16;6.57;;;1.27;;
20734;SDS011;10528;52.124;5.196;2022-08-01T10:24:50;6.03;;;1.40;;
20734;SDS011;10528;52.124;5.196;2022-08-01T10:27:21;10.32;;;1.80;;
20734;SDS011;10528;52.124;5.196;2022-08-01T10:30:03;10.50;;;1.95;;
20734;SDS011;10528;52.124;5.196;2022-08-01T10:32:49;5.55;;;1.42;;
20734;SDS011;10528;52.124;5.196;2022-08-01T10:35:20;6.68;;;1.40;;
20734;SDS011;10528;52.124;5.196;2022-08-01T10:38:08;8.30;;;2.03;;
20734;SDS011;10528;52.124;5.196;2022-08-01T10:40:39;11.20;;;1.83;;
20734;SDS011;10528;52.124;5.196;2022-08-01T10:43:11;7.13;;;1.52;;
20734;SDS011;10528;52.124;5.196;2022-08-01T10:45:47;9.32;;;1.48;;
20734;SDS011;10528;52.124;5.196;2022-08-01T10:51:17;7.43;;;1.90;;
20734;SDS011;10528;52.124;5.196;2022-08-01T10:54:08;5.35;;;1.73;;
20734;SDS011;10528;52.124;5.196;2022-08-01T10:56:48;5.38;;;1.42;;
20734;SDS011;10528;52.124;5.196;2022-08-01T10:59:26;9.05;;;1.73;;
20734;SDS011;10528;52.124;5.196;2022-08-01T11:02:28;6.20;;;1.25;;
20734;SDS011;10528;52.124;5.196;2022-08-01T11:05:01;4.65;;;1.38;;
20734;SDS011;10528;52.124;5.196;2022-08-01T11:07:40;5.80;;;1.33;;
20734;SDS011;10528;52.124;5.196;2022-08-01T11:13:05;5.65;;;1.67;;
20734;SDS011;10528;52.124;5.196;2022-08-01T11:15:39;7.43;;;1.80;;
20734;SDS011;10528;52.124;5.196;2022-08-01T11:18:29;4.68;;;1.27;;
20734;SDS011;10528;52.124;5.196;2022-08-01T11:21:00;6.05;;;1.52;;
20734;SDS011;10528;52.124;5.196;2022-08-01T11:23:49;6.13;;;1.30;;
20734;SDS011;10528;52.124;5.196;2022-08-01T11:26:22;4.32;;;1.30;;
20734;SDS011;10528;52.124;5.196;2022-08-01T11:29:11;6.40;;;1.23;;
20734;SDS011;10528;52.124;5.196;2022-08-01T11:31:48;4.85;;;1.20;;
20734;SDS011;10528;52.124;5.196;2022-08-01T11:34:16;2.90;;;0.88;;
20734;SDS011;10528;52.124;5.196;2022-08-01T11:36:43;3.85;;;1.10;;
20734;SDS011;10528;52.124;5.196;2022-08-01T11:39:28;4.97;;;0.80;;
20734;SDS011;10528;52.124;5.196;2022-08-01T11:41:57;5.32;;;1.40;;
20734;SDS011;10528;52.124;5.196;2022-08-01T11:44:49;4.25;;;1.00;;
20734;SDS011;10528;52.124;5.196;2022-08-01T11:47:17;4.93;;;1.00;;
20734;SDS011;10528;52.124;5.196;2022-08-01T11:49:47;5.13;;;0.98;;
20734;SDS011;10528;52.124;5.196;2022-08-01T11:52:25;3.67;;;0.70;;
20734;SDS011;10528;52.124;5.196;2022-08-01T11:57:37;5.70;;;1.00;;
20734;SDS011;10528;52.124;5.196;2022-08-01T12:02:41;5.55;;;1.23;;
20734;SDS011;10528;52.124;5.196;2022-08-01T12:05:11;5.10;;;1.42;;
20734;SDS011;10528;52.124;5.196;2022-08-01T12:07:43;3.90;;;1.00;;
20734;SDS011;10528;52.124;5.196;2022-08-01T12:10:16;3.03;;;0.98;;
20734;SDS011;10528;52.124;5.196;2022-08-01T12:12:50;3.70;;;0.90;;
20734;SDS011;10528;52.124;5.196;2022-08-01T12:15:19;3.95;;;1.10;;
20734;SDS011;10528;52.124;5.196;2022-08-01T12:17:53;5.38;;;0.90;;
20734;SDS011;10528;52.124;5.196;2022-08-01T12:20:28;3.80;;;0.90;;
20734;SDS011;10528;52.124;5.196;2022-08-01T12:23:05;3.63;;;0.85;;
20734;SDS011;10528;52.124;5.196;2022-08-01T12:25:35;2.90;;;0.95;;
20734;SDS011;10528;52.124;5.196;2022-08-01T12:28:06;3.05;;;1.00;;
20734;SDS011;10528;52.124;5.196;2022-08-01T12:30:35;3.67;;;0.90;;
20734;SDS011;10528;52.124;5.196;2022-08-01T12:33:04;4.00;;;0.80;;
20734;SDS011;10528;52.124;5.196;2022-08-01T12:35:34;2.78;;;0.93;;
20734;SDS011;10528;52.124;5.196;2022-08-01T12:38:21;5.15;;;0.80;;
20734;SDS011;10528;52.124;5.196;2022-08-01T12:40:50;5.15;;;0.80;;
20734;SDS011;10528;52.124;5.196;2022-08-01T12:43:20;3.85;;;0.82;;
20734;SDS011;10528;52.124;5.196;2022-08-01T12:45:54;3.20;;;0.82;;
20734;SDS011;10528;52.124;5.196;2022-08-01T12:48:26;3.63;;;1.08;;
20734;SDS011;10528;52.124;5.196;2022-08-01T12:50:56;4.00;;;0.93;;
20734;SDS011;10528;52.124;5.196;2022-08-01T12:53:27;4.05;;;0.80;;
20734;SDS011;10528;52.124;5.196;2022-08-01T12:56:06;3.13;;;0.80;;
20734;SDS011;10528;52.124;5.196;2022-08-01T12:58:36;2.28;;;0.70;;
20734;SDS011;10528;52.124;5.196;2022-08-01T13:01:07;2.28;;;0.70;;
20734;SDS011;10528;52.124;5.196;2022-08-01T13:03:37;5.10;;;1.10;;
20734;SDS011;10528;52.124;5.196;2022-08-01T13:06:11;4.50;;;1.85;;
20734;SDS011;10528;52.124;5.196;2022-08-01T13:08:43;3.63;;;0.80;;
20734;SDS011;10528;52.124;5.196;2022-08-01T13:11:12;2.72;;;0.80;;
20734;SDS011;10528;52.124;5.196;2022-08-01T13:16:17;2.55;;;1.00;;
20734;SDS011;10528;52.124;5.196;2022-08-01T13:19:03;5.28;;;1.13;;
20734;SDS011;10528;52.124;5.196;2022-08-01T13:21:32;1.73;;;0.80;;
20734;SDS011;10528;52.124;5.196;2022-08-01T13:24:37;1.85;;;0.73;;
20734;SDS011;10528;52.124;5.196;2022-08-01T13:27:04;2.45;;;0.70;;
20734;SDS011;10528;52.124;5.196;2022-08-01T13:29:32;2.72;;;0.70;;
20734;SDS011;10528;52.124;5.196;2022-08-01T13:32:17;2.85;;;0.75;;
20734;SDS011;10528;52.124;5.196;2022-08-01T13:35:03;2.95;;;0.63;;
20734;SDS011;10528;52.124;5.196;2022-08-01T13:37:33;2.67;;;0.70;;
20734;SDS011;10528;52.124;5.196;2022-08-01T13:40:03;3.20;;;0.80;;
20734;SDS011;10528;52.124;5.196;2022-08-01T13:42:32;2.47;;;0.85;;
20734;SDS011;10528;52.124;5.196;2022-08-01T13:44:59;1.75;;;0.85;;
20734;SDS011;10528;52.124;5.196;2022-08-01T13:47:28;1.58;;;0.80;;
20734;SDS011;10528;52.124;5.196;2022-08-01T13:49:58;1.58;;;0.60;;
20734;SDS011;10528;52.124;5.196;2022-08-01T13:52:28;1.20;;;0.60;;
20734;SDS011;10528;52.124;5.196;2022-08-01T13:54:56;1.60;;;0.73;;
20734;SDS011;10528;52.124;5.196;2022-08-01T13:57:24;2.80;;;0.82;;
20734;SDS011;10528;52.124;5.196;2022-08-01T14:00:06;2.95;;;0.73;;
20734;SDS011;10528;52.124;5.196;2022-08-01T14:02:37;2.30;;;0.60;;
20734;SDS011;10528;52.124;5.196;2022-08-01T14:05:04;2.78;;;0.80;;
20734;SDS011;10528;52.124;5.196;2022-08-01T14:07:32;2.17;;;0.60;;
20734;SDS011;10528;52.124;5.196;2022-08-01T14:10:01;1.75;;;0.70;;
20734;SDS011;10528;52.124;5.196;2022-08-01T14:12:44;3.72;;;0.85;;
20734;SDS011;10528;52.124;5.196;2022-08-01T14:15:11;2.72;;;0.98;;
20734;SDS011;10528;52.124;5.196;2022-08-01T14:17:38;2.20;;;0.65;;
20734;SDS011;10528;52.124;5.196;2022-08-01T14:20:13;2.10;;;0.60;;
20734;SDS011;10528;52.124;5.196;2022-08-01T14:22:40;2.25;;;0.80;;
20734;SDS011;10528;52.124;5.196;2022-08-01T14:25:07;3.13;;;0.88;;
20734;SDS011;10528;52.124;5.196;2022-08-01T14:27:35;2.15;;;0.80;;
20734;SDS011;10528;52.124;5.196;2022-08-01T14:30:04;1.85;;;0.70;;
20734;SDS011;10528;52.124;5.196;2022-08-01T14:32:32;3.03;;;0.85;;
20734;SDS011;10528;52.124;5.196;2022-08-01T14:35:02;2.00;;;0.70;;
20734;SDS011;10528;52.124;5.196;2022-08-01T14:37:32;4.07;;;0.90;;
20734;SDS011;10528;52.124;5.196;2022-08-01T14:40:04;3.47;;;0.80;;
20734;SDS011;10528;52.124;5.196;2022-08-01T14:42:35;5.05;;;0.90;;
20734;SDS011;10528;52.124;5.196;2022-08-01T14:45:04;3.72;;;0.90;;
20734;SDS011;10528;52.124;5.196;2022-08-01T14:47:39;2.80;;;0.77;;
20734;SDS011;10528;52.124;5.196;2022-08-01T14:50:11;2.55;;;0.73;;
20734;SDS011;10528;52.124;5.196;2022-08-01T14:52:41;2.13;;;0.70;;
20734;SDS011;10528;52.124;5.196;2022-08-01T14:55:10;2.72;;;1.38;;
20734;SDS011;10528;52.124;5.196;2022-08-01T14:57:40;2.70;;;0.80;;
20734;SDS011;10528;52.124;5.196;2022-08-01T15:00:07;2.50;;;0.77;;
20734;SDS011;10528;52.124;5.196;2022-08-01T15:02:39;5.20;;;0.60;;
20734;SDS011;10528;52.124;5.196;2022-08-01T15:05:06;2.17;;;0.77;;
20734;SDS011;10528;52.124;5.196;2022-08-01T15:07:34;2.47;;;0.80;;
20734;SDS011;10528;52.124;5.196;2022-08-01T15:10:17;1.70;;;0.60;;
20734;SDS011;10528;52.124;5.196;2022-08-01T15:12:46;5.35;;;1.00;;
20734;SDS011;10528;52.124;5.196;2022-08-01T15:15:16;2.70;;;0.90;;
20734;SDS011;10528;52.124;5.196;2022-08-01T15:17:43;2.85;;;0.82;;
20734;SDS011;10528;52.124;5.196;2022-08-01T15:20:13;3.20;;;0.88;;
20734;SDS011;10528;52.124;5.196;2022-08-01T15:22:40;3.45;;;0.82;;
20734;SDS011;10528;52.124;5.196;2022-08-01T15:25:07;4.40;;;1.35;;
20734;SDS011;10528;52.124;5.196;2022-08-01T15:27:33;3.67;;;0.75;;
20734;SDS011;10528;52.124;5.196;2022-08-01T15:30:00;3.78;;;0.80;;
20734;SDS011;10528;52.124;5.196;2022-08-01T15:32:28;2.33;;;0.80;;
20734;SDS011;10528;52.124;5.196;2022-08-01T15:34:55;2.70;;;1.08;;
20734;SDS011;10528;52.124;5.196;2022-08-01T15:37:22;4.55;;;0.70;;
20734;SDS011;10528;52.124;5.196;2022-08-01T15:39:51;2.47;;;0.75;;
20734;SDS011;10528;52.124;5.196;2022-08-01T15:42:22;3.28;;;0.60;;